Norway, Kansas
Current Conditions -  °F | °C
As of 4:18 AM on Monday 22 Dec 2014 (Local Time) from KCNK Reporting Station
Light Rain Light Rain  
Wind Chill: 36°   Ceiling: 500
Heat Index: 43°   Visibility: 4mi
Dew Point: 43°   Wind: 15mph
Humidity: 100%   Direction: 180°S
Pressure: 29.52"   Gusts: NA
Location:  39.7°N, 97.77°W
Report Text: KCNK 221018Z AUTO 18013KT 4SM -RA BR OVC005 06/06 A2952 RMK AO2 CIG 003V007 P0001 T00610061
Loading
Personal Weather Stations






























Interactive Weather Map New forecast layout! Learn more

10-Day Weather Forecast

Advertisements
Track Severe Weather on mobile